createdAt,value
2018-11-01T00:00:18.505Z,3.10
2018-11-01T00:02:48.304Z,1.80
2018-11-01T00:05:17.999Z,1.42
2018-11-01T00:07:47.401Z,1.43
2018-11-01T00:10:16.761Z,1.43
2018-11-01T00:12:46.205Z,2.42
2018-11-01T00:15:16.413Z,1.20
2018-11-01T00:17:45.756Z,1.67
2018-11-01T00:20:15.144Z,0.97
2018-11-01T00:22:44.943Z,1.17
2018-11-01T00:25:14.775Z,1.70
2018-11-01T00:27:44.215Z,2.00
2018-11-01T00:30:13.567Z,2.30
2018-11-01T00:32:42.906Z,2.87
2018-11-01T00:35:12.281Z,2.13
2018-11-01T00:37:41.723Z,1.50
2018-11-01T00:40:13.843Z,2.37
2018-11-01T00:42:43.930Z,1.67
2018-11-01T00:45:13.598Z,1.50
2018-11-01T00:47:43.897Z,1.60
2018-11-01T00:50:14.463Z,1.70
2018-11-01T00:52:44.373Z,3.60
2018-11-01T00:55:14.342Z,1.35
2018-11-01T00:57:43.862Z,1.90
2018-11-01T01:00:15.005Z,1.30
2018-11-01T01:02:44.334Z,1.50
2018-11-01T01:05:13.803Z,1.42
2018-11-01T01:07:43.137Z,3.50
2018-11-01T01:10:15.980Z,2.23
2018-11-01T01:12:47.098Z,1.37
2018-11-01T01:15:16.401Z,1.40
2018-11-01T01:17:45.770Z,1.32
2018-11-01T01:20:16.452Z,1.50
2018-11-01T01:22:46.601Z,1.30
2018-11-01T01:25:17.176Z,1.30
2018-11-01T01:27:46.512Z,1.37
2018-11-01T01:30:19.099Z,1.52
2018-11-01T01:32:48.870Z,1.20
2018-11-01T01:35:18.335Z,1.77
2018-11-01T01:37:47.708Z,1.20
2018-11-01T01:40:17.054Z,1.13
2018-11-01T01:42:54.377Z,1.12
2018-11-01T01:45:24.349Z,1.40
2018-11-01T01:47:53.711Z,2.62
2018-11-01T01:50:23.116Z,1.60
2018-11-01T01:52:52.401Z,1.57
2018-11-01T01:55:21.748Z,1.72
2018-11-01T01:57:51.136Z,2.17
2018-11-01T02:00:21.374Z,2.00
2018-11-01T02:02:51.919Z,3.25
2018-11-01T02:05:21.241Z,1.98
2018-11-01T02:07:50.564Z,1.80
2018-11-01T02:10:20.012Z,3.22
2018-11-01T02:12:49.404Z,1.62
2018-11-01T02:15:20.308Z,2.65
2018-11-01T02:17:49.643Z,1.98
2018-11-01T02:20:20.039Z,1.30
2018-11-01T02:22:49.382Z,2.73
2018-11-01T02:25:18.731Z,1.47
2018-11-01T02:27:53.091Z,1.47
2018-11-01T02:30:23.466Z,1.00
2018-11-01T02:32:52.770Z,1.30
2018-11-01T02:35:22.172Z,1.00
2018-11-01T02:37:51.624Z,1.40
2018-11-01T02:40:21.369Z,1.70
2018-11-01T02:42:50.687Z,1.80
2018-11-01T02:45:20.045Z,3.02
2018-11-01T02:47:49.373Z,2.17
2018-11-01T02:50:18.761Z,2.00
2018-11-01T02:52:48.090Z,1.75
2018-11-01T02:55:17.409Z,1.90
2018-11-01T02:57:46.751Z,1.62
2018-11-01T03:00:16.881Z,1.17
2018-11-01T03:02:46.215Z,1.15
2018-11-01T03:05:15.519Z,1.30
2018-11-01T03:07:44.868Z,2.72
2018-11-01T03:10:15.132Z,1.65
2018-11-01T03:12:44.460Z,1.42
2018-11-01T03:15:14.778Z,1.27
2018-11-01T03:17:44.127Z,0.95
2018-11-01T03:20:13.808Z,2.67
2018-11-01T03:22:43.273Z,1.37
2018-11-01T03:25:12.632Z,1.67
2018-11-01T03:27:41.981Z,1.32
2018-11-01T03:30:11.480Z,1.12
2018-11-01T03:32:40.804Z,1.20
2018-11-01T03:35:11.342Z,1.52
2018-11-01T03:37:41.166Z,1.50
2018-11-01T03:40:11.723Z,2.22
2018-11-01T03:42:41.969Z,1.45
2018-11-01T03:45:12.604Z,1.17
2018-11-01T03:47:42.848Z,1.00
2018-11-01T03:50:12.763Z,3.02
2018-11-01T03:52:42.144Z,1.30
2018-11-01T03:55:12.499Z,1.22
2018-11-01T03:57:42.671Z,1.30
2018-11-01T04:00:15.517Z,1.20
2018-11-01T04:02:46.601Z,1.75
2018-11-01T04:05:16.136Z,1.67
2018-11-01T04:07:45.480Z,1.12
2018-11-01T04:10:14.808Z,2.33
2018-11-01T04:12:44.109Z,1.32
2018-11-01T04:15:14.456Z,1.37
2018-11-01T04:17:43.704Z,3.33
2018-11-01T04:20:13.964Z,2.55
2018-11-01T04:22:43.756Z,2.02
2018-11-01T04:25:13.490Z,1.82
2018-11-01T04:27:43.635Z,1.50
2018-11-01T04:30:12.996Z,2.02
2018-11-01T04:32:42.277Z,3.12
2018-11-01T04:35:11.589Z,1.85
2018-11-01T04:37:41.062Z,1.22
2018-11-01T04:40:10.923Z,1.77
2018-11-01T04:42:40.711Z,1.62
2018-11-01T04:45:11.726Z,1.95
2018-11-01T04:47:41.393Z,1.82
2018-11-01T04:50:11.966Z,1.60
2018-11-01T04:52:42.494Z,2.20
2018-11-01T04:55:12.880Z,2.95
2018-11-01T04:57:42.169Z,3.40
2018-11-01T05:00:13.918Z,1.37
2018-11-01T05:02:43.941Z,1.45
2018-11-01T05:05:14.237Z,1.70
2018-11-01T05:07:43.413Z,1.52
2018-11-01T05:10:13.757Z,1.60
2018-11-01T05:12:43.129Z,3.62
2018-11-01T05:15:12.498Z,2.10
2018-11-01T05:17:41.759Z,3.27
2018-11-01T05:20:12.848Z,2.02
2018-11-01T05:22:42.816Z,3.17
2018-11-01T05:25:12.274Z,1.70
2018-11-01T05:27:42.670Z,1.70
2018-11-01T05:30:13.679Z,1.85
2018-11-01T05:32:43.283Z,3.12
2018-11-01T05:35:12.605Z,2.10
2018-11-01T05:37:41.931Z,2.98
2018-11-01T05:40:12.261Z,1.50
2018-11-01T05:42:42.743Z,1.92
2018-11-01T05:45:12.126Z,4.22
2018-11-01T05:47:41.531Z,4.37
2018-11-01T05:50:10.928Z,3.10
2018-11-01T05:52:40.286Z,3.72
2018-11-01T05:55:09.971Z,4.90
2018-11-01T05:57:39.321Z,5.05
2018-11-01T06:00:13.652Z,3.52
2018-11-01T06:02:44.524Z,3.27
2018-11-01T06:05:13.894Z,3.27
2018-11-01T06:07:50.578Z,6.37
2018-11-01T06:10:19.868Z,5.05
2018-11-01T06:12:49.199Z,10.48
2018-11-01T06:15:18.568Z,8.60
2018-11-01T06:17:47.929Z,7.00
2018-11-01T06:20:17.296Z,8.83
2018-11-01T06:22:46.691Z,6.10
2018-11-01T06:25:16.051Z,5.67
2018-11-01T06:27:45.391Z,5.47
2018-11-01T06:30:16.684Z,6.85
2018-11-01T06:32:47.204Z,4.35
2018-11-01T06:35:21.740Z,4.60
2018-11-01T06:37:52.451Z,4.87
2018-11-01T06:40:21.799Z,4.78
2018-11-01T06:42:51.120Z,5.22
2018-11-01T06:45:20.545Z,5.17
2018-11-01T06:47:49.921Z,7.20
2018-11-01T06:50:19.300Z,4.25
2018-11-01T06:52:48.608Z,5.47
2018-11-01T06:55:18.011Z,5.80
2018-11-01T06:57:47.877Z,3.83
2018-11-01T07:00:17.773Z,4.30
2018-11-01T07:02:47.126Z,3.83
2018-11-01T07:05:16.469Z,3.58
2018-11-01T07:07:45.828Z,3.65
2018-11-01T07:10:16.097Z,8.38
2018-11-01T07:12:45.540Z,8.05
2018-11-01T07:15:16.079Z,9.30
2018-11-01T07:17:45.506Z,12.55
2018-11-01T07:20:15.525Z,10.82
2018-11-01T07:22:45.345Z,10.68
2018-11-01T07:25:15.943Z,11.65
2018-11-01T07:27:45.254Z,10.45
2018-11-01T07:30:17.555Z,9.85
2018-11-01T07:32:47.011Z,10.23
2018-11-01T07:35:16.339Z,11.97
2018-11-01T07:37:46.370Z,10.88
2018-11-01T07:40:16.982Z,7.95
2018-11-01T07:42:46.335Z,10.32
2018-11-01T07:45:16.018Z,9.33
2018-11-01T07:47:45.884Z,8.33
2018-11-01T07:50:15.583Z,6.90
2018-11-01T07:52:45.119Z,9.18
2018-11-01T07:55:15.651Z,11.00
2018-11-01T07:57:46.738Z,9.00
2018-11-01T08:00:17.329Z,6.80
2018-11-01T08:02:47.472Z,6.50
2018-11-01T08:05:17.468Z,6.15
2018-11-01T08:07:46.888Z,5.42
2018-11-01T08:10:17.601Z,6.67
2018-11-01T08:12:47.820Z,11.00
2018-11-01T08:15:21.417Z,7.57
2018-11-01T08:17:50.770Z,8.97
2018-11-01T08:20:20.748Z,7.97
2018-11-01T08:22:50.083Z,8.03
2018-11-01T08:25:19.465Z,6.58
2018-11-01T08:27:48.910Z,7.47
2018-11-01T08:30:18.848Z,8.93
2018-11-01T08:32:48.272Z,8.17
2018-11-01T08:35:17.645Z,8.18
2018-11-01T08:38:25.917Z,8.28
2018-11-01T08:40:55.320Z,8.27
2018-11-01T08:46:21.981Z,7.63
2018-11-01T08:48:51.426Z,9.53
2018-11-01T08:51:20.821Z,7.87
2018-11-01T08:53:50.334Z,7.33
2018-11-01T08:56:19.989Z,6.65
2018-11-01T08:58:49.448Z,5.80
2018-11-01T09:01:20.524Z,7.80
2018-11-01T09:03:49.908Z,4.83
2018-11-01T09:06:19.298Z,3.93
2018-11-01T09:08:48.678Z,4.37
2018-11-01T09:11:18.109Z,4.93
2018-11-01T09:13:47.473Z,5.20
2018-11-01T09:16:16.829Z,6.80
2018-11-01T09:18:46.254Z,5.33
2018-11-01T09:21:15.608Z,4.70
2018-11-01T09:23:45.847Z,5.70
2018-11-01T09:26:15.226Z,4.67
2018-11-01T09:28:44.681Z,7.43
2018-11-01T09:31:14.088Z,4.70
2018-11-01T09:33:43.529Z,4.70
2018-11-01T09:36:13.009Z,7.23
2018-11-01T09:38:42.415Z,4.77
2018-11-01T09:41:11.850Z,5.80
2018-11-01T09:43:41.298Z,8.15
2018-11-01T09:46:10.818Z,4.57
2018-11-01T09:48:40.237Z,3.70
2018-11-01T09:51:09.632Z,3.87
2018-11-01T09:53:39.045Z,4.57
2018-11-01T09:56:08.655Z,3.87
2018-11-01T09:58:38.074Z,5.07
2018-11-01T10:01:07.566Z,4.50
2018-11-01T10:03:36.885Z,3.47
2018-11-01T10:06:06.731Z,4.23
2018-11-01T10:08:36.215Z,5.27
2018-11-01T10:11:05.841Z,6.40
2018-11-01T10:13:35.290Z,4.63
2018-11-01T10:16:04.916Z,4.33
2018-11-01T10:18:34.288Z,7.23
2018-11-01T10:21:03.629Z,4.10
2018-11-01T10:23:33.007Z,6.80
2018-11-01T10:26:02.642Z,4.07
2018-11-01T10:28:32.016Z,5.40
2018-11-01T10:31:01.406Z,5.90
2018-11-01T10:33:30.806Z,5.53
2018-11-01T10:36:00.448Z,8.13
2018-11-01T10:38:29.949Z,5.30
2018-11-01T10:40:59.504Z,8.97
2018-11-01T10:43:28.786Z,7.33
2018-11-01T10:45:58.221Z,7.03
2018-11-01T10:48:27.658Z,5.50
2018-11-01T10:50:57.157Z,8.10
2018-11-01T10:53:26.533Z,6.07
2018-11-01T10:55:55.913Z,7.90
2018-11-01T10:58:25.302Z,6.23
2018-11-01T11:01:00.207Z,5.63
2018-11-01T11:03:29.451Z,6.13
2018-11-01T11:05:58.911Z,7.87
2018-11-01T11:08:28.327Z,5.43
2018-11-01T11:10:57.717Z,4.30
2018-11-01T11:13:27.089Z,5.47
2018-11-01T11:15:56.541Z,4.67
2018-11-01T11:18:25.924Z,5.50
2018-11-01T11:20:56.075Z,4.93
2018-11-01T11:23:25.157Z,5.70
2018-11-01T11:25:54.520Z,5.03
2018-11-01T11:28:23.897Z,3.83
2018-11-01T11:30:53.382Z,3.87
2018-11-01T11:33:22.704Z,8.47
2018-11-01T11:35:52.130Z,5.17
2018-11-01T11:38:21.519Z,5.77
2018-11-01T11:40:50.934Z,5.03
2018-11-01T11:43:20.392Z,4.10
2018-11-01T11:45:49.790Z,5.00
2018-11-01T11:48:19.215Z,4.77
2018-11-01T11:50:48.624Z,3.03
2018-11-01T11:53:18.000Z,2.90
2018-11-01T11:55:47.384Z,6.03
2018-11-01T11:58:16.792Z,4.23
2018-11-01T12:00:46.196Z,4.27
2018-11-01T12:03:15.655Z,4.90
2018-11-01T12:05:45.159Z,4.40
2018-11-01T12:08:14.574Z,4.20
2018-11-01T12:10:43.980Z,5.10
2018-11-01T12:13:13.356Z,4.17
2018-11-01T12:15:42.742Z,4.20
2018-11-01T12:18:12.197Z,3.67
2018-11-01T12:20:41.736Z,4.53
2018-11-01T12:23:11.092Z,4.77
2018-11-01T12:25:40.508Z,4.93
2018-11-01T12:28:09.929Z,3.83
2018-11-01T12:30:39.274Z,4.47
2018-11-01T12:33:08.611Z,3.43
2018-11-01T12:35:38.054Z,5.57
2018-11-01T12:38:07.492Z,4.03
2018-11-01T12:40:37.282Z,3.90
2018-11-01T12:43:07.773Z,4.77
2018-11-01T12:45:37.317Z,3.13
2018-11-01T12:48:06.933Z,5.10
2018-11-01T12:50:36.370Z,4.67
2018-11-01T12:53:05.980Z,4.40
2018-11-01T12:55:35.587Z,3.37
2018-11-01T12:58:05.243Z,3.43
2018-11-01T13:00:35.492Z,4.03
2018-11-01T13:03:06.073Z,4.87
2018-11-01T13:05:35.663Z,4.47
2018-11-01T13:08:07.616Z,4.80
2018-11-01T13:10:39.223Z,4.17
2018-11-01T13:13:10.927Z,4.90
2018-11-01T13:15:42.439Z,3.73
2018-11-01T13:18:13.951Z,3.87
2018-11-01T13:20:43.408Z,4.30
2018-11-01T13:23:13.083Z,3.50
2018-11-01T13:25:42.567Z,3.27
2018-11-01T13:28:11.997Z,4.13
2018-11-01T13:30:41.379Z,3.80
2018-11-01T13:33:10.783Z,3.93
2018-11-01T13:35:40.204Z,3.40
2018-11-01T13:38:09.782Z,3.77
2018-11-01T13:40:39.448Z,3.07
2018-11-01T13:43:08.907Z,4.27
2018-11-01T13:45:38.374Z,4.53
2018-11-01T13:48:08.016Z,3.87
2018-11-01T13:50:37.306Z,3.40
2018-11-01T13:53:06.865Z,4.17
2018-11-01T13:55:36.337Z,3.10
2018-11-01T13:58:05.798Z,3.10
2018-11-01T14:00:35.256Z,2.47
2018-11-01T14:03:04.676Z,3.67
2018-11-01T14:05:34.075Z,2.63
2018-11-01T14:08:03.453Z,2.90
2018-11-01T14:10:32.845Z,3.23
2018-11-01T14:13:02.217Z,2.80
2018-11-01T14:15:31.698Z,3.40
2018-11-01T14:18:01.015Z,2.30
2018-11-01T14:20:30.394Z,2.43
2018-11-01T14:22:59.777Z,2.07
2018-11-01T14:25:29.355Z,2.53
2018-11-01T14:27:58.685Z,2.50
2018-11-01T14:30:28.188Z,2.23
2018-11-01T14:32:57.586Z,2.33
2018-11-01T14:35:27.011Z,2.23
2018-11-01T14:37:56.476Z,2.10
2018-11-01T14:40:25.849Z,1.43
2018-11-01T14:42:55.252Z,2.03
2018-11-01T14:45:24.716Z,1.60
2018-11-01T14:47:54.141Z,2.17
2018-11-01T14:50:23.572Z,2.17
2018-11-01T14:52:53.269Z,2.43
2018-11-01T14:55:24.095Z,1.60
2018-11-01T14:57:53.412Z,1.90
2018-11-01T15:00:21.575Z,1.27
2018-11-01T15:02:50.954Z,1.67
2018-11-01T15:05:20.285Z,1.70
2018-11-01T15:07:49.719Z,1.63
2018-11-01T15:10:18.997Z,2.00
2018-11-01T15:12:48.373Z,1.50
2018-11-01T15:15:17.855Z,1.83
2018-11-01T15:17:47.258Z,1.80
2018-11-01T15:20:16.829Z,1.87
2018-11-01T15:22:47.314Z,1.73
2018-11-01T15:25:16.736Z,1.67
2018-11-01T15:27:46.157Z,1.43
2018-11-01T15:30:16.394Z,1.87
2018-11-01T15:32:46.608Z,2.77
2018-11-01T15:35:16.012Z,3.03
2018-11-01T15:37:45.424Z,1.77
2018-11-01T15:40:14.847Z,2.37
2018-11-01T15:42:44.639Z,1.60
2018-11-01T15:45:14.760Z,3.00
2018-11-01T15:47:44.477Z,3.23
2018-11-01T15:50:14.502Z,3.43
2018-11-01T15:52:44.111Z,3.63
2018-11-01T15:55:13.532Z,3.67
2018-11-01T15:57:42.942Z,1.80
2018-11-01T16:00:14.259Z,1.90
2018-11-01T16:02:44.678Z,3.03
2018-11-01T16:05:15.046Z,1.40
2018-11-01T16:07:44.612Z,1.60
2018-11-01T16:10:14.377Z,2.20
2018-11-01T16:12:43.617Z,2.43
2018-11-01T16:15:14.512Z,2.07
2018-11-01T16:17:43.865Z,1.83
2018-11-01T16:20:13.479Z,1.93
2018-11-01T16:22:42.846Z,1.83
2018-11-01T16:25:12.432Z,1.60
2018-11-01T16:27:41.839Z,4.13
2018-11-01T16:30:11.277Z,1.70
2018-11-01T16:32:40.700Z,2.03
2018-11-01T16:35:10.668Z,1.73
2018-11-01T16:37:41.762Z,2.17
2018-11-01T16:40:12.060Z,1.93
2018-11-01T16:42:41.507Z,1.80
2018-11-01T16:45:13.965Z,2.30
2018-11-01T16:47:44.882Z,2.43
2018-11-01T16:50:14.431Z,3.37
2018-11-01T16:52:43.895Z,5.33
2018-11-01T16:55:14.500Z,5.20
2018-11-01T16:57:43.998Z,4.20
2018-11-01T17:00:14.053Z,3.53
2018-11-01T17:02:44.687Z,5.13
2018-11-01T17:05:14.049Z,3.27
2018-11-01T17:07:43.567Z,3.53
2018-11-01T17:10:14.163Z,3.20
2018-11-01T17:12:43.475Z,4.23
2018-11-01T17:15:14.256Z,3.53
2018-11-01T17:17:44.649Z,3.97
2018-11-01T17:20:14.123Z,3.77
2018-11-01T17:22:43.520Z,4.47
2018-11-01T17:25:12.968Z,4.63
2018-11-01T17:27:42.299Z,4.23
2018-11-01T17:30:11.758Z,5.30
2018-11-01T17:32:46.377Z,4.97
2018-11-01T17:35:16.083Z,5.93
2018-11-01T17:37:45.566Z,8.37
2018-11-01T17:40:14.967Z,9.43
2018-11-01T17:42:44.902Z,9.73
2018-11-01T17:45:14.353Z,6.27
2018-11-01T17:47:43.957Z,8.50
2018-11-01T17:50:15.052Z,9.27
2018-11-01T17:52:44.478Z,7.50
2018-11-01T17:55:13.836Z,9.37
2018-11-01T17:57:43.620Z,7.97
2018-11-01T18:00:14.593Z,7.67
2018-11-01T18:02:44.299Z,9.60
2018-11-01T18:05:13.645Z,11.03
2018-11-01T18:07:43.033Z,11.17
2018-11-01T18:10:13.249Z,11.22
2018-11-01T18:12:42.657Z,10.18
2018-11-01T18:15:12.089Z,11.67
2018-11-01T18:17:41.489Z,14.78
2018-11-01T18:20:12.476Z,12.33
2018-11-01T18:22:42.080Z,13.15
2018-11-01T18:25:13.469Z,11.53
2018-11-01T18:27:43.444Z,9.33
2018-11-01T18:30:14.985Z,9.47
2018-11-01T18:32:45.104Z,10.37
2018-11-01T18:35:14.385Z,11.67
2018-11-01T18:37:43.870Z,10.33
2018-11-01T18:40:16.118Z,12.80
2018-11-01T18:42:45.513Z,14.87
2018-11-01T18:45:15.747Z,11.87
2018-11-01T18:47:45.436Z,12.00
2018-11-01T18:50:16.222Z,15.27
2018-11-01T18:52:45.640Z,16.23
2018-11-01T18:55:15.041Z,19.23
2018-11-01T18:57:44.482Z,18.57
2018-11-01T19:00:17.034Z,18.00
2018-11-01T19:02:46.670Z,18.73
2018-11-01T19:05:16.150Z,17.17
2018-11-01T19:07:45.894Z,14.90
2018-11-01T19:10:15.471Z,12.33
2018-11-01T19:12:44.994Z,13.47
2018-11-01T19:15:15.166Z,13.07
2018-11-01T19:17:44.557Z,9.10
2018-11-01T19:20:14.128Z,12.23
2018-11-01T19:22:43.533Z,8.23
2018-11-01T19:25:13.145Z,11.27
2018-11-01T19:27:42.719Z,8.33
2018-11-01T19:30:12.857Z,10.07
2018-11-01T19:32:42.642Z,11.67
2018-11-01T19:35:13.099Z,12.57
2018-11-01T19:37:42.490Z,18.67
2018-11-01T19:40:14.569Z,15.67
2018-11-01T19:42:44.397Z,18.40
2018-11-01T19:45:13.866Z,14.90
2018-11-01T19:47:43.314Z,13.43
2018-11-01T19:50:13.935Z,13.70
2018-11-01T19:52:43.533Z,15.83
2018-11-01T19:55:13.492Z,18.13
2018-11-01T19:57:43.115Z,14.50
2018-11-01T20:00:15.093Z,13.53
2018-11-01T20:02:45.305Z,13.07
2018-11-01T20:05:14.738Z,13.27
2018-11-01T20:07:44.262Z,11.90
2018-11-01T20:10:14.688Z,12.53
2018-11-01T20:12:44.489Z,12.97
2018-11-01T20:15:13.870Z,13.80
2018-11-01T20:17:43.334Z,14.33
2018-11-01T20:20:14.789Z,13.13
2018-11-01T20:22:45.306Z,10.73
2018-11-01T20:25:14.910Z,12.03
2018-11-01T20:27:44.399Z,11.43
2018-11-01T20:30:15.135Z,8.07
2018-11-01T20:32:45.946Z,7.53
2018-11-01T20:35:16.258Z,4.50
2018-11-01T20:37:45.745Z,4.90
2018-11-01T20:40:15.162Z,4.10
2018-11-01T20:42:44.704Z,3.57
2018-11-01T20:45:14.512Z,5.33
2018-11-01T20:47:43.974Z,4.27
2018-11-01T20:50:14.147Z,4.37
2018-11-01T20:52:43.497Z,3.37
2018-11-01T20:55:12.871Z,5.47
2018-11-01T20:57:42.323Z,4.17
2018-11-01T21:00:13.667Z,4.03
2018-11-01T21:02:43.098Z,3.20
2018-11-01T21:05:12.592Z,2.90
2018-11-01T21:07:41.908Z,3.13
2018-11-01T21:10:11.864Z,3.67
2018-11-01T21:12:41.471Z,3.40
2018-11-01T21:15:13.042Z,3.87
2018-11-01T21:17:42.419Z,2.97
2018-11-01T21:20:11.835Z,3.40
2018-11-01T21:22:41.430Z,2.73
2018-11-01T21:25:11.897Z,2.93
2018-11-01T21:27:41.780Z,3.23
2018-11-01T21:30:11.516Z,4.27
2018-11-01T21:32:40.901Z,4.50
2018-11-01T21:35:10.310Z,3.03
2018-11-01T21:37:39.621Z,4.43
2018-11-01T21:40:10.594Z,2.87
2018-11-01T21:42:40.054Z,4.00
2018-11-01T21:45:12.112Z,3.37
2018-11-01T21:47:41.974Z,3.90
2018-11-01T21:50:12.060Z,4.50
2018-11-01T21:52:41.505Z,4.00
2018-11-01T21:55:11.006Z,3.03
2018-11-01T21:57:41.325Z,2.57
2018-11-01T22:00:11.672Z,2.50
2018-11-01T22:02:41.712Z,2.30
2018-11-01T22:05:12.369Z,1.67
2018-11-01T22:07:41.799Z,3.17
2018-11-01T22:10:11.772Z,1.77
2018-11-01T22:12:41.201Z,1.60
2018-11-01T22:15:12.080Z,2.10
2018-11-01T22:17:42.222Z,2.23
2018-11-01T22:20:11.984Z,1.50
2018-11-01T22:22:41.432Z,3.17
2018-11-01T22:25:10.756Z,1.30
2018-11-01T22:27:40.170Z,1.70
2018-11-01T22:30:11.188Z,1.50
2018-11-01T22:32:41.334Z,2.23
2018-11-01T22:35:10.862Z,1.50
2018-11-01T22:37:41.083Z,1.57
2018-11-01T22:40:10.422Z,2.00
2018-11-01T22:42:39.857Z,1.50
2018-11-01T22:45:10.547Z,1.23
2018-11-01T22:47:40.275Z,1.40
2018-11-01T22:50:10.605Z,1.10
2018-11-01T22:52:40.985Z,1.53
2018-11-01T22:55:11.594Z,1.60
2018-11-01T22:57:41.187Z,1.10
2018-11-01T23:00:13.642Z,1.63
2018-11-01T23:02:43.676Z,1.70
2018-11-01T23:05:13.584Z,1.43
2018-11-01T23:07:42.960Z,3.07
2018-11-01T23:10:14.581Z,1.33
2018-11-01T23:12:44.094Z,1.83
2018-11-01T23:15:14.162Z,1.80
2018-11-01T23:17:43.884Z,1.00
2018-11-01T23:20:13.835Z,1.60
2018-11-01T23:22:43.200Z,1.10
2018-11-01T23:25:12.633Z,2.00
2018-11-01T23:27:41.985Z,1.30
2018-11-01T23:30:11.375Z,2.73
2018-11-01T23:32:41.282Z,1.50
2018-11-01T23:35:10.779Z,1.50
2018-11-01T23:37:45.318Z,1.60
2018-11-01T23:40:19.897Z,2.17
2018-11-01T23:42:54.501Z,2.10
2018-11-01T23:45:29.109Z,2.00
2018-11-01T23:47:59.685Z,1.27
2018-11-01T23:51:32.829Z,2.17
2018-11-01T23:54:02.239Z,1.93
2018-11-01T23:56:31.713Z,1.43
2018-11-01T23:59:01.129Z,2.77
